createdAt,value
2022-08-19T00:00:07.479Z,49581.47
2022-08-19T00:02:34.259Z,49539.63
2022-08-19T00:05:00.998Z,49575.50
2022-08-19T00:07:27.826Z,49575.50
2022-08-19T00:09:54.762Z,49587.47
2022-08-19T00:12:24.266Z,49555.56
2022-08-19T00:14:50.981Z,49607.41
2022-08-19T00:17:17.627Z,49527.66
2022-08-19T00:19:44.299Z,49561.53
2022-08-19T00:22:11.027Z,49569.50
2022-08-19T00:24:39.402Z,49533.63
2022-08-19T00:27:25.981Z,49551.56
2022-08-19T00:29:53.046Z,49575.50
2022-08-19T00:32:20.175Z,49567.53
2022-08-19T00:34:47.594Z,49531.63
2022-08-19T00:37:14.294Z,49581.47
2022-08-19T00:39:41.026Z,49537.63
2022-08-19T00:42:07.752Z,49565.53
2022-08-19T00:44:34.399Z,49555.56
2022-08-19T00:47:01.251Z,49593.44
2022-08-19T00:49:37.528Z,49543.59
2022-08-19T00:52:15.013Z,49579.47
2022-08-19T00:54:43.880Z,49529.66
2022-08-19T00:57:15.921Z,49539.63
2022-08-19T01:00:00.499Z,49549.59
2022-08-19T01:02:31.889Z,49557.56
2022-08-19T01:05:00.187Z,49583.47
2022-08-19T01:07:26.957Z,49563.53
2022-08-19T01:09:53.632Z,49587.47
2022-08-19T01:12:21.219Z,49549.59
2022-08-19T01:14:48.982Z,49571.50
2022-08-19T01:17:17.177Z,49571.50
2022-08-19T01:19:44.907Z,49571.50
2022-08-19T01:22:31.414Z,49599.41
2022-08-19T01:25:00.390Z,49523.66
2022-08-19T01:27:29.593Z,49569.50
2022-08-19T01:30:08.806Z,49567.53
2022-08-19T01:32:35.905Z,49587.47
2022-08-19T01:35:04.607Z,49599.41
2022-08-19T01:37:43.391Z,49575.50
2022-08-19T01:40:11.051Z,49593.44
2022-08-19T01:42:38.004Z,49545.59
2022-08-19T01:45:06.026Z,49579.47
2022-08-19T01:47:32.668Z,49535.63
2022-08-19T01:49:59.487Z,49581.47
2022-08-19T01:52:26.107Z,49567.53
2022-08-19T01:54:52.819Z,49581.47
2022-08-19T01:57:19.678Z,49587.47
2022-08-19T01:59:46.698Z,49599.41
2022-08-19T02:02:13.387Z,49589.44
2022-08-19T02:04:40.290Z,49585.47
2022-08-19T02:07:08.963Z,49575.50
2022-08-19T02:09:36.298Z,49567.53
2022-08-19T02:12:03.606Z,49537.63
2022-08-19T02:14:30.263Z,49553.56
2022-08-19T02:16:57.015Z,49597.44
2022-08-19T02:19:23.619Z,49563.53
2022-08-19T02:21:50.273Z,49619.34
2022-08-19T02:24:17.093Z,49603.41
2022-08-19T02:26:43.773Z,49537.63
2022-08-19T02:29:10.584Z,49583.47
2022-08-19T02:31:37.349Z,49579.47
2022-08-19T02:34:04.172Z,49577.50
2022-08-19T02:36:31.308Z,49571.50
2022-08-19T02:38:58.129Z,49579.47
2022-08-19T02:41:27.896Z,49579.47
2022-08-19T02:44:28.554Z,49571.50
2022-08-19T02:46:44.349Z,49553.56
2022-08-19T02:49:10.995Z,49603.41
2022-08-19T02:51:41.276Z,49577.50
2022-08-19T02:54:09.890Z,49579.47
2022-08-19T02:56:38.732Z,49593.44
2022-08-19T02:59:09.273Z,49577.50
2022-08-19T03:01:40.684Z,49595.44
2022-08-19T03:04:09.058Z,49607.41
2022-08-19T03:06:40.568Z,49557.56
2022-08-19T03:09:07.505Z,49607.41
2022-08-19T03:11:34.754Z,49599.41
2022-08-19T03:14:02.401Z,49583.47
2022-08-19T03:16:33.521Z,49581.47
2022-08-19T03:19:02.125Z,49613.38
2022-08-19T03:21:32.004Z,49593.44
2022-08-19T03:24:01.302Z,49571.50
2022-08-19T03:26:28.477Z,49595.44
2022-08-19T03:28:58.098Z,49631.31
2022-08-19T03:31:45.588Z,49587.47
2022-08-19T03:34:20.962Z,49611.38
2022-08-19T03:36:48.660Z,49607.41
2022-08-19T03:39:16.670Z,49607.41
2022-08-19T03:41:46.446Z,49539.63
2022-08-19T03:44:19.108Z,49569.50
2022-08-19T03:46:48.900Z,49591.44
2022-08-19T03:49:16.038Z,49589.44
2022-08-19T03:51:44.966Z,49565.53
2022-08-19T03:54:14.390Z,49555.56
2022-08-19T03:56:43.029Z,49623.34
2022-08-19T03:59:12.651Z,49595.44
2022-08-19T04:01:39.384Z,49557.56
2022-08-19T04:04:06.589Z,49583.47
2022-08-19T04:06:36.264Z,49589.44
2022-08-19T04:09:10.427Z,49623.34
2022-08-19T04:11:47.595Z,49577.50
2022-08-19T04:14:17.890Z,49607.41
2022-08-19T04:16:45.868Z,49591.44
2022-08-19T04:19:12.385Z,49607.41
2022-08-19T04:21:39.084Z,49617.38
2022-08-19T04:24:06.379Z,49591.44
2022-08-19T04:26:37.135Z,49583.47
2022-08-19T04:29:12.306Z,49617.38
2022-08-19T04:31:41.840Z,49587.47
2022-08-19T04:34:13.926Z,49603.41
2022-08-19T04:36:42.342Z,49623.34
2022-08-19T04:39:17.976Z,49569.50
2022-08-19T04:42:04.276Z,49611.38
2022-08-19T04:44:33.515Z,49583.47
2022-08-19T04:47:11.389Z,49631.31
2022-08-19T04:49:38.396Z,49583.47
2022-08-19T04:52:05.076Z,49599.41
2022-08-19T04:54:38.879Z,49603.41
2022-08-19T04:57:09.574Z,49605.41
2022-08-19T04:59:38.060Z,49603.41
2022-08-19T05:02:05.380Z,49593.44
2022-08-19T05:04:33.147Z,49571.50
2022-08-19T05:07:00.811Z,49617.38
2022-08-19T05:09:52.594Z,49595.44
2022-08-19T05:12:16.555Z,49599.41
2022-08-19T05:14:44.279Z,49615.38
2022-08-19T05:17:27.084Z,49567.53
2022-08-19T05:20:14.277Z,49605.41
2022-08-19T05:22:42.080Z,49603.41
2022-08-19T05:25:13.812Z,49567.53
2022-08-19T05:27:42.349Z,49589.44
2022-08-19T05:30:10.659Z,49627.31
2022-08-19T05:32:38.182Z,49583.47
2022-08-19T05:35:05.705Z,49603.41
2022-08-19T05:37:32.559Z,49613.38
2022-08-19T05:39:59.422Z,49593.44
2022-08-19T05:42:27.512Z,49607.41
2022-08-19T05:44:54.513Z,49593.44
2022-08-19T05:47:21.426Z,49569.50
2022-08-19T05:49:50.876Z,49589.44
2022-08-19T05:52:19.627Z,49579.47
2022-08-19T05:54:55.756Z,49577.50
2022-08-19T05:57:23.909Z,49599.41
2022-08-19T05:59:57.876Z,49597.44
2022-08-19T06:02:29.704Z,49601.41
2022-08-19T06:04:56.462Z,49587.47
2022-08-19T06:07:23.319Z,49599.41
2022-08-19T06:09:59.101Z,49593.44
2022-08-19T06:12:31.593Z,49555.56
2022-08-19T06:15:01.153Z,49559.56
2022-08-19T06:17:31.453Z,49613.38
2022-08-19T06:19:59.457Z,49627.31
2022-08-19T06:22:26.934Z,49615.38
2022-08-19T06:24:54.917Z,49613.38
2022-08-19T06:27:22.620Z,49599.41
2022-08-19T06:29:49.885Z,49567.53
2022-08-19T06:32:19.140Z,49567.53
2022-08-19T06:34:45.938Z,49579.47
2022-08-19T06:37:13.026Z,49593.44
2022-08-19T06:39:42.727Z,49615.38
2022-08-19T06:42:12.432Z,49579.47
2022-08-19T06:44:43.029Z,49577.50
2022-08-19T06:47:14.885Z,49555.56
2022-08-19T06:49:50.275Z,49559.56
2022-08-19T06:52:18.479Z,49555.56
2022-08-19T06:54:55.435Z,49545.59
2022-08-19T06:57:25.233Z,49575.50
2022-08-19T06:59:52.475Z,49613.38
2022-08-19T07:02:20.206Z,49603.41
2022-08-19T07:04:47.073Z,49595.44
2022-08-19T07:07:20.270Z,49595.44
2022-08-19T07:09:57.955Z,49579.47
2022-08-19T07:12:25.411Z,49591.44
2022-08-19T07:14:53.725Z,49565.53
2022-08-19T07:17:21.805Z,49583.47
2022-08-19T07:19:48.650Z,49555.56
2022-08-19T07:22:15.930Z,49571.50
2022-08-19T07:24:51.245Z,49591.44
2022-08-19T07:27:18.500Z,49555.56
2022-08-19T07:29:55.978Z,49579.47
2022-08-19T07:32:26.903Z,49595.44
2022-08-19T07:34:53.656Z,49545.59
2022-08-19T07:37:20.324Z,49587.47
2022-08-19T07:39:47.043Z,49635.31
2022-08-19T07:42:14.693Z,49605.41
2022-08-19T07:44:42.248Z,49579.47
2022-08-19T07:47:49.995Z,49597.44
2022-08-19T07:50:08.894Z,49571.50
2022-08-19T07:52:37.241Z,49547.59
2022-08-19T07:55:05.814Z,49551.56
2022-08-19T07:57:32.584Z,49577.50
2022-08-19T08:00:00.006Z,49563.53
2022-08-19T08:02:26.789Z,49571.50
2022-08-19T08:05:12.083Z,49569.50
2022-08-19T08:07:58.382Z,49513.69
2022-08-19T08:10:26.099Z,49541.59
2022-08-19T08:13:10.161Z,49535.63
2022-08-19T08:15:42.604Z,49563.53
2022-08-19T08:18:10.563Z,49551.56
2022-08-19T08:20:37.230Z,49559.56
2022-08-19T08:23:22.720Z,49583.47
2022-08-19T08:25:50.249Z,49567.53
2022-08-19T08:28:18.235Z,49555.56
2022-08-19T08:30:46.793Z,49583.47
2022-08-19T08:35:43.262Z,49569.50
2022-08-19T08:38:10.309Z,49565.53
2022-08-19T08:40:42.706Z,49577.50
2022-08-19T08:43:32.963Z,49575.50
2022-08-19T08:46:31.170Z,49575.50
2022-08-19T08:49:12.999Z,49517.69
2022-08-19T08:51:56.220Z,49527.66
2022-08-19T08:54:40.282Z,49547.59
2022-08-19T08:57:20.907Z,49557.56
2022-08-19T08:59:52.731Z,49547.59
2022-08-19T09:02:19.836Z,49553.56
2022-08-19T09:04:47.026Z,49543.59
2022-08-19T09:07:47.485Z,49551.56
2022-08-19T09:10:35.578Z,49555.56
2022-08-19T09:13:26.310Z,49579.47
2022-08-19T09:16:04.254Z,49515.69
2022-08-19T09:18:41.931Z,49527.66
2022-08-19T09:21:09.759Z,49511.72
2022-08-19T09:23:37.926Z,49557.56
2022-08-19T09:26:10.928Z,49547.59
2022-08-19T09:28:38.511Z,49519.69
2022-08-19T09:31:05.894Z,49515.69
2022-08-19T09:33:32.560Z,49507.72
2022-08-19T09:36:08.526Z,49547.59
2022-08-19T09:38:37.099Z,49539.63
2022-08-19T09:41:14.608Z,49487.78
2022-08-19T09:43:47.784Z,49547.59
2022-08-19T09:46:18.364Z,49547.59
2022-08-19T09:48:49.330Z,49491.78
2022-08-19T09:51:18.658Z,49535.63
2022-08-19T09:53:54.907Z,49557.56
2022-08-19T09:56:23.877Z,49533.63
2022-08-19T09:58:52.057Z,49513.69
2022-08-19T10:01:22.310Z,49547.59
2022-08-19T10:03:55.391Z,49563.53
2022-08-19T10:06:46.445Z,49535.63
2022-08-19T10:09:12.159Z,49539.63
2022-08-19T10:11:49.850Z,49553.56
2022-08-19T10:14:23.581Z,49565.53
2022-08-19T10:16:52.768Z,49539.63
2022-08-19T10:19:25.798Z,49523.66
2022-08-19T10:21:54.309Z,49555.56
2022-08-19T10:24:28.661Z,49545.59
2022-08-19T10:26:59.133Z,49531.63
2022-08-19T10:29:32.273Z,49551.56
2022-08-19T10:32:09.659Z,49547.59
2022-08-19T10:34:48.898Z,49541.59
2022-08-19T10:37:23.730Z,49529.66
2022-08-19T10:39:56.173Z,49571.50
2022-08-19T10:42:22.955Z,49553.56
2022-08-19T10:44:49.633Z,49535.63
2022-08-19T10:47:25.597Z,49535.63
2022-08-19T10:50:15.462Z,49521.69
2022-08-19T10:52:50.396Z,49565.53
2022-08-19T10:55:41.581Z,49511.72
2022-08-19T10:58:17.766Z,49575.50
2022-08-19T11:00:51.779Z,49539.63
2022-08-19T11:03:19.600Z,49511.72
2022-08-19T11:05:46.230Z,49515.69
2022-08-19T11:08:23.809Z,49527.66
2022-08-19T11:11:01.647Z,49519.69
2022-08-19T11:13:29.498Z,49523.66
2022-08-19T11:16:06.574Z,49513.69
2022-08-19T11:18:39.498Z,49527.66
2022-08-19T11:21:28.443Z,49525.66
2022-08-19T11:23:58.363Z,49513.69
2022-08-19T11:26:26.459Z,49523.66
2022-08-19T11:28:55.448Z,49511.72
2022-08-19T11:31:28.957Z,49497.75
2022-08-19T11:34:01.163Z,49539.63
2022-08-19T11:36:28.633Z,49531.63
2022-08-19T11:38:55.693Z,49509.72
2022-08-19T11:41:24.350Z,49523.66
2022-08-19T11:43:53.963Z,49551.56
2022-08-19T11:46:21.879Z,49491.78
2022-08-19T11:48:50.680Z,49527.66
2022-08-19T11:51:23.218Z,49517.69
2022-08-19T11:53:51.370Z,49535.63
2022-08-19T11:56:19.750Z,49527.66
2022-08-19T11:58:46.788Z,49507.72
2022-08-19T12:01:16.936Z,49539.63
2022-08-19T12:03:45.894Z,49523.66
2022-08-19T12:06:16.200Z,49515.69
2022-08-19T12:08:44.449Z,49479.81
2022-08-19T12:11:13.515Z,49493.75
2022-08-19T12:13:40.923Z,49499.75
2022-08-19T12:16:17.149Z,49495.75
2022-08-19T12:18:47.614Z,49485.78
2022-08-19T12:21:15.451Z,49463.88
2022-08-19T12:23:43.120Z,49495.75
2022-08-19T12:26:10.986Z,49473.84
2022-08-19T12:28:38.793Z,49475.81
2022-08-19T12:31:05.610Z,49501.75
2022-08-19T12:33:33.059Z,49499.75
2022-08-19T12:36:07.783Z,49487.78
2022-08-19T12:38:35.569Z,49497.75
2022-08-19T12:41:04.328Z,49495.75
2022-08-19T12:43:31.305Z,49479.81
2022-08-19T12:45:58.212Z,49495.75
2022-08-19T12:48:33.420Z,49463.88
2022-08-19T12:51:06.381Z,49465.84
2022-08-19T12:53:33.050Z,49451.91
2022-08-19T12:56:01.397Z,49477.81
2022-08-19T12:58:29.947Z,49467.84
2022-08-19T13:00:56.698Z,49441.94
2022-08-19T13:03:28.396Z,49475.81
2022-08-19T13:05:55.029Z,49433.97
2022-08-19T13:08:21.722Z,49424.00
2022-08-19T13:10:48.355Z,49485.78
2022-08-19T13:13:15.056Z,49441.94
2022-08-19T13:15:43.730Z,49447.91
2022-08-19T13:18:11.851Z,49463.88
2022-08-19T13:20:41.608Z,49418.00
2022-08-19T13:23:09.363Z,49475.81
2022-08-19T13:25:37.125Z,49439.94
2022-08-19T13:28:05.224Z,49439.94
2022-08-19T13:30:50.191Z,49437.94
2022-08-19T13:33:17.865Z,49424.00
2022-08-19T13:35:46.588Z,49398.09
2022-08-19T13:38:14.761Z,49418.00
2022-08-19T13:40:42.397Z,49431.97
2022-08-19T13:43:13.617Z,49372.16
2022-08-19T13:45:51.286Z,49388.13
2022-08-19T13:48:19.261Z,49420.00
2022-08-19T13:50:48.229Z,49412.03
2022-08-19T13:53:15.208Z,49400.06
2022-08-19T13:55:43.727Z,49416.03
2022-08-19T13:58:11.692Z,49431.97
2022-08-19T14:00:43.906Z,49465.84
2022-08-19T14:03:10.664Z,49447.91
2022-08-19T14:05:37.767Z,49483.81
2022-08-19T14:08:04.763Z,49439.94
2022-08-19T14:10:32.595Z,49414.03
2022-08-19T14:13:01.735Z,49372.16
2022-08-19T14:15:29.327Z,49348.25
2022-08-19T14:17:56.366Z,49390.09
2022-08-19T14:20:25.784Z,49429.97
2022-08-19T14:22:53.839Z,49445.94
2022-08-19T14:25:23.679Z,49418.00
2022-08-19T14:27:50.693Z,49451.91
2022-08-19T14:30:26.472Z,49414.03
2022-08-19T14:32:53.511Z,49447.91
2022-08-19T14:35:20.181Z,49435.97
2022-08-19T14:37:47.388Z,49449.91
2022-08-19T14:40:17.201Z,49396.09
2022-08-19T14:42:44.394Z,49429.97
2022-08-19T14:45:12.610Z,49459.88
2022-08-19T14:47:40.914Z,49439.94
2022-08-19T14:50:17.745Z,49447.91
2022-08-19T14:52:44.743Z,49431.97
2022-08-19T14:55:11.464Z,49416.03
2022-08-19T14:57:38.093Z,49364.19
2022-08-19T15:00:05.493Z,49364.19
2022-08-19T15:02:33.798Z,49356.22
2022-08-19T15:05:02.804Z,49328.31
2022-08-19T15:07:30.320Z,49368.19
2022-08-19T15:09:57.103Z,49398.09
2022-08-19T15:12:24.987Z,49380.13
2022-08-19T15:14:52.984Z,49422.00
2022-08-19T15:17:43.739Z,49471.84
2022-08-19T15:20:13.618Z,49429.97
2022-08-19T15:22:40.950Z,49404.06
2022-08-19T15:25:11.743Z,49412.03
2022-08-19T15:27:40.652Z,49390.09
2022-08-19T15:30:09.468Z,49449.91
2022-08-19T15:32:37.279Z,49441.94
2022-08-19T15:35:06.774Z,49426.00
2022-08-19T15:37:34.501Z,49449.91
2022-08-19T15:40:07.531Z,49437.94
2022-08-19T15:42:37.516Z,49465.84
2022-08-19T15:45:06.052Z,49457.88
2022-08-19T15:47:35.151Z,49469.84
2022-08-19T15:50:14.979Z,49471.84
2022-08-19T15:52:50.650Z,49479.81
2022-08-19T15:55:33.323Z,49465.84
2022-08-19T15:58:28.447Z,49487.78
2022-08-19T16:01:20.874Z,49469.84
2022-08-19T16:04:13.867Z,49481.81
2022-08-19T16:06:48.476Z,49475.81
2022-08-19T16:09:17.158Z,49475.81
2022-08-19T16:11:46.477Z,49485.78
2022-08-19T16:14:18.530Z,49467.84
2022-08-19T16:16:47.301Z,49489.78
2022-08-19T16:19:17.247Z,49459.88
2022-08-19T16:21:50.511Z,49461.88
2022-08-19T16:24:19.423Z,49483.81
2022-08-19T16:26:46.592Z,49459.88
2022-08-19T16:29:15.055Z,49455.88
2022-08-19T16:31:55.993Z,49465.84
2022-08-19T16:34:24.543Z,49499.75
2022-08-19T16:36:51.529Z,49501.75
2022-08-19T16:39:18.436Z,49467.84
2022-08-19T16:41:46.135Z,49493.75
2022-08-19T16:44:15.437Z,49469.84
2022-08-19T16:46:42.472Z,49513.69
2022-08-19T16:49:11.399Z,49507.72
2022-08-19T16:51:39.672Z,49495.75
2022-08-19T16:54:06.924Z,49493.75
2022-08-19T16:56:34.559Z,49479.81
2022-08-19T16:59:01.817Z,49483.81
2022-08-19T17:01:28.908Z,49499.75
2022-08-19T17:03:56.670Z,49459.88
2022-08-19T17:06:26.103Z,49427.97
2022-08-19T17:08:55.431Z,49414.03
2022-08-19T17:11:24.378Z,49424.00
2022-08-19T17:13:51.441Z,49394.09
2022-08-19T17:16:24.968Z,49467.84
2022-08-19T17:18:53.281Z,49465.84
2022-08-19T17:21:21.682Z,49487.78
2022-08-19T17:23:49.072Z,49479.81
2022-08-19T17:26:18.441Z,49495.75
2022-08-19T17:28:49.633Z,49451.91
2022-08-19T17:31:18.504Z,49507.72
2022-08-19T17:33:48.232Z,49515.69
2022-08-19T17:36:23.548Z,49475.81
2022-08-19T17:38:51.962Z,49479.81
2022-08-19T17:41:19.067Z,49503.72
2022-08-19T17:43:45.759Z,49535.63
2022-08-19T17:46:20.473Z,49471.84
2022-08-19T17:48:57.633Z,49489.78
2022-08-19T17:51:33.325Z,49505.72
2022-08-19T17:54:00.570Z,49483.81
2022-08-19T17:56:28.777Z,49491.78
2022-08-19T17:58:59.884Z,49515.69
2022-08-19T18:01:30.042Z,49495.75
2022-08-19T18:04:07.418Z,49491.78
2022-08-19T18:06:36.613Z,49507.72
2022-08-19T18:09:05.563Z,49499.75
2022-08-19T18:11:32.920Z,49535.63
2022-08-19T18:14:00.362Z,49509.72
2022-08-19T18:16:26.999Z,49519.69
2022-08-19T18:18:54.784Z,49517.69
2022-08-19T18:21:22.111Z,49501.75
2022-08-19T18:23:48.844Z,49499.75
2022-08-19T18:26:15.733Z,49503.72
2022-08-19T18:28:50.019Z,49545.59
2022-08-19T18:31:17.315Z,49529.66
2022-08-19T18:33:45.223Z,49513.69
2022-08-19T18:36:12.231Z,49537.63
2022-08-19T18:38:57.126Z,49507.72
2022-08-19T18:41:43.511Z,49479.81
2022-08-19T18:44:29.058Z,49539.63
2022-08-19T18:47:14.755Z,49491.78
2022-08-19T18:49:41.428Z,49519.69
2022-08-19T18:52:08.114Z,49511.72
2022-08-19T18:54:35.705Z,49509.72
2022-08-19T18:57:03.336Z,49503.72
2022-08-19T18:59:30.371Z,49491.78
2022-08-19T19:01:59.188Z,49531.63
2022-08-19T19:04:35.804Z,49511.72
2022-08-19T19:07:03.366Z,49515.69
2022-08-19T19:09:30.064Z,49513.69
2022-08-19T19:11:59.904Z,49507.72
2022-08-19T19:14:48.219Z,49509.72
2022-08-19T19:17:15.940Z,49523.66
2022-08-19T19:19:43.998Z,49503.72
2022-08-19T19:22:18.810Z,49543.59
2022-08-19T19:24:45.967Z,49519.69
2022-08-19T19:27:14.591Z,49519.69
2022-08-19T19:29:42.536Z,49527.66
2022-08-19T19:32:16.573Z,49509.72
2022-08-19T19:34:43.296Z,49555.56
2022-08-19T19:37:10.922Z,49533.63
2022-08-19T19:39:46.446Z,49501.75
2022-08-19T19:42:20.037Z,49527.66
2022-08-19T19:44:50.220Z,49511.72
2022-08-19T19:47:18.985Z,49527.66
2022-08-19T19:50:12.714Z,49535.63
2022-08-19T19:52:34.310Z,49527.66
2022-08-19T19:55:01.526Z,49463.88
2022-08-19T19:57:30.394Z,49539.63
2022-08-19T19:59:57.116Z,49559.56
2022-08-19T20:02:25.173Z,49487.78
2022-08-19T20:04:52.200Z,49527.66
2022-08-19T20:07:39.030Z,49529.66
2022-08-19T20:10:05.938Z,49517.69
2022-08-19T20:12:32.604Z,49547.59
2022-08-19T20:14:59.278Z,49539.63
2022-08-19T20:17:26.938Z,49539.63
2022-08-19T20:19:53.762Z,49547.59
2022-08-19T20:22:20.428Z,49561.53
2022-08-19T20:24:48.400Z,49547.59
2022-08-19T20:27:15.032Z,49505.72
2022-08-19T20:29:44.438Z,49549.59
2022-08-19T20:32:12.500Z,49543.59
2022-08-19T20:34:40.902Z,49569.50
2022-08-19T20:37:11.279Z,49547.59
2022-08-19T20:39:38.188Z,49553.56
2022-08-19T20:42:05.356Z,49555.56
2022-08-19T20:44:32.607Z,49579.47
2022-08-19T20:47:03.361Z,49531.63
2022-08-19T20:49:30.560Z,49569.50
2022-08-19T20:51:58.444Z,49511.72
2022-08-19T20:54:26.095Z,49555.56
2022-08-19T20:56:53.061Z,49567.53
2022-08-19T20:59:20.733Z,49547.59
2022-08-19T21:01:48.812Z,49553.56
2022-08-19T21:04:15.498Z,49559.56
2022-08-19T21:06:45.266Z,49525.66
2022-08-19T21:09:13.742Z,49557.56
2022-08-19T21:11:40.563Z,49543.59
2022-08-19T21:14:07.990Z,49527.66
2022-08-19T21:16:34.684Z,49553.56
2022-08-19T21:19:02.054Z,49569.50
2022-08-19T21:21:28.955Z,49581.47
2022-08-19T21:23:55.644Z,49565.53
2022-08-19T21:26:22.438Z,49555.56
2022-08-19T21:28:49.059Z,49563.53
2022-08-19T21:31:17.809Z,49529.66
2022-08-19T21:33:44.945Z,49561.53
2022-08-19T21:36:11.654Z,49533.63
2022-08-19T21:38:38.456Z,49523.66
2022-08-19T21:41:06.562Z,49539.63
2022-08-19T21:43:37.016Z,49557.56
2022-08-19T21:46:04.545Z,49537.63
2022-08-19T21:48:31.214Z,49577.50
2022-08-19T21:50:57.852Z,49533.63
2022-08-19T21:53:24.505Z,49553.56
2022-08-19T21:55:53.762Z,49533.63
2022-08-19T21:58:30.146Z,49553.56
2022-08-19T22:00:59.253Z,49595.44
2022-08-19T22:03:26.818Z,49563.53
2022-08-19T22:05:53.671Z,49577.50
2022-08-19T22:08:20.416Z,49537.63
2022-08-19T22:10:47.102Z,49563.53
2022-08-19T22:13:14.617Z,49547.59
2022-08-19T22:15:42.442Z,49585.47
2022-08-19T22:18:09.063Z,49539.63
2022-08-19T22:20:36.674Z,49579.47
2022-08-19T22:23:07.132Z,49561.53
2022-08-19T22:25:36.896Z,49593.44
2022-08-19T22:28:06.973Z,49591.44
2022-08-19T22:30:39.088Z,49575.50
2022-08-19T22:33:12.492Z,49563.53
2022-08-19T22:35:41.259Z,49611.38
2022-08-19T22:38:10.835Z,49547.59
2022-08-19T22:40:40.755Z,49551.56
2022-08-19T22:43:14.972Z,49569.50
2022-08-19T22:45:42.799Z,49595.44
2022-08-19T22:48:10.985Z,49597.44
2022-08-19T22:50:39.074Z,49587.47
2022-08-19T22:53:09.418Z,49581.47
2022-08-19T22:55:39.393Z,49535.63
2022-08-19T22:58:06.344Z,49557.56
2022-08-19T23:00:33.848Z,49549.59
2022-08-19T23:03:02.095Z,49583.47
2022-08-19T23:05:29.539Z,49599.41
2022-08-19T23:07:58.085Z,49583.47
2022-08-19T23:10:27.998Z,49565.53
2022-08-19T23:12:57.959Z,49605.41
2022-08-19T23:15:28.049Z,49595.44
2022-08-19T23:18:00.903Z,49583.47
2022-08-19T23:20:32.931Z,49591.44
2022-08-19T23:23:03.322Z,49581.47
2022-08-19T23:25:32.852Z,49593.44
2022-08-19T23:28:18.087Z,49599.41
2022-08-19T23:30:47.342Z,49591.44
2022-08-19T23:33:24.234Z,49591.44
2022-08-19T23:35:59.151Z,49559.56
2022-08-19T23:38:28.109Z,49603.41
2022-08-19T23:40:59.750Z,49627.31
2022-08-19T23:43:29.664Z,49607.41
2022-08-19T23:46:01.980Z,49567.53
2022-08-19T23:48:37.430Z,49567.53
2022-08-19T23:51:07.830Z,49589.44
2022-08-19T23:53:35.829Z,49571.50
2022-08-19T23:56:02.619Z,49601.41
2022-08-19T23:58:30.125Z,49567.53
